createdAt,value
2022-11-29T00:00:37.400Z,96890.00
2022-11-29T00:03:03.927Z,96895.19
2022-11-29T00:05:33.487Z,96893.13
2022-11-29T00:07:59.855Z,96894.38
2022-11-29T00:10:26.225Z,96895.44
2022-11-29T00:12:52.563Z,96896.69
2022-11-29T00:15:18.920Z,96881.53
2022-11-29T00:17:45.320Z,96893.56
2022-11-29T00:20:12.280Z,96890.47
2022-11-29T00:22:39.843Z,96877.41
2022-11-29T00:25:07.440Z,96891.00
2022-11-29T00:27:33.810Z,96893.28
2022-11-29T00:30:00.332Z,96879.41
2022-11-29T00:32:26.739Z,96892.72
2022-11-29T00:34:53.152Z,96890.41
2022-11-29T00:37:19.538Z,96888.34
2022-11-29T00:39:45.879Z,96903.69
2022-11-29T00:42:12.282Z,96901.06
2022-11-29T00:44:38.624Z,96894.88
2022-11-29T00:47:05.027Z,96893.25
2022-11-29T00:49:31.413Z,96905.25
2022-11-29T00:51:57.825Z,96896.25
2022-11-29T00:54:24.264Z,96913.69
2022-11-29T00:56:50.617Z,96897.25
2022-11-29T00:59:16.979Z,96909.47
2022-11-29T01:01:43.458Z,96901.50
2022-11-29T01:04:09.909Z,96908.91
2022-11-29T01:06:36.295Z,96909.94
2022-11-29T01:09:03.509Z,96911.41
2022-11-29T01:11:29.906Z,96901.94
2022-11-29T01:13:59.927Z,96910.88
2022-11-29T01:16:27.500Z,96908.84
2022-11-29T01:18:53.967Z,96915.47
2022-11-29T01:21:23.142Z,96916.22
2022-11-29T01:23:51.529Z,96915.47
2022-11-29T01:26:21.099Z,96913.94
2022-11-29T01:28:49.901Z,96916.03
2022-11-29T01:31:23.188Z,96918.25
2022-11-29T01:33:56.581Z,96919.88
2022-11-29T01:36:23.970Z,96927.53
2022-11-29T01:38:50.414Z,96922.72
2022-11-29T01:41:23.472Z,96925.03
2022-11-29T01:43:54.782Z,96932.41
2022-11-29T01:46:21.186Z,96930.13
2022-11-29T01:48:49.112Z,96935.56
2022-11-29T01:51:15.739Z,96934.50
2022-11-29T01:53:42.128Z,96930.44
2022-11-29T01:56:10.279Z,96919.16
2022-11-29T01:58:36.819Z,96938.69
2022-11-29T02:01:03.223Z,96937.63
2022-11-29T02:03:29.625Z,96936.59
2022-11-29T02:05:56.108Z,96929.47
2022-11-29T02:08:31.387Z,96924.88
2022-11-29T02:11:20.713Z,96929.75
2022-11-29T02:14:05.224Z,96935.59
2022-11-29T02:16:37.551Z,96930.75
2022-11-29T02:19:53.314Z,96927.88
2022-11-29T02:22:32.441Z,96940.75
2022-11-29T02:25:22.062Z,96938.47
2022-11-29T02:28:09.671Z,96934.09
2022-11-29T02:30:58.274Z,96919.56
2022-11-29T02:33:43.397Z,96938.25
2022-11-29T02:36:23.721Z,96939.31
2022-11-29T02:39:08.788Z,96939.88
2022-11-29T02:42:27.107Z,96939.09
2022-11-29T02:45:18.785Z,96943.47
2022-11-29T02:48:00.085Z,96949.41
2022-11-29T02:50:43.868Z,96933.44
2022-11-29T02:53:19.796Z,96939.88
2022-11-29T02:56:01.501Z,96939.56
2022-11-29T02:58:37.651Z,96933.22
2022-11-29T03:01:15.648Z,96942.94
2022-11-29T03:04:00.171Z,96950.38
2022-11-29T03:06:47.903Z,96949.63
2022-11-29T03:09:54.544Z,96951.91
2022-11-29T03:12:40.111Z,96937.34
2022-11-29T03:15:28.006Z,96949.63
2022-11-29T03:18:41.735Z,96955.81
2022-11-29T03:21:22.869Z,96946.84
2022-11-29T03:23:59.729Z,96959.41
2022-11-29T03:26:40.316Z,96961.41
2022-11-29T03:29:16.212Z,96953.19
2022-11-29T03:31:52.676Z,96958.56
2022-11-29T03:34:37.777Z,96966.78
2022-11-29T03:37:14.532Z,96960.66
2022-11-29T03:40:05.802Z,96973.22
2022-11-29T03:42:38.198Z,96958.81
2022-11-29T03:45:11.195Z,96968.81
2022-11-29T03:47:51.250Z,96959.03
2022-11-29T03:50:24.995Z,96970.56
2022-11-29T03:53:01.816Z,96967.00
2022-11-29T03:55:57.042Z,96964.50
2022-11-29T03:58:38.683Z,96977.03
2022-11-29T04:01:29.287Z,96977.34
2022-11-29T04:04:20.076Z,96983.53
2022-11-29T04:07:20.497Z,96976.84
2022-11-29T04:10:01.917Z,96977.09
2022-11-29T04:12:37.927Z,96957.91
2022-11-29T04:15:38.542Z,96975.38
2022-11-29T04:18:41.762Z,96980.03
2022-11-29T04:21:20.979Z,96970.81
2022-11-29T04:23:59.672Z,96985.53
2022-11-29T04:26:56.827Z,96975.75
2022-11-29T04:29:54.390Z,96980.69
2022-11-29T04:32:41.421Z,96989.75
2022-11-29T04:35:28.479Z,96985.41
2022-11-29T04:38:25.906Z,96995.47
2022-11-29T04:40:55.340Z,96986.50
2022-11-29T04:43:39.919Z,96997.28
2022-11-29T04:46:38.290Z,96994.75
2022-11-29T04:49:25.699Z,96999.63
2022-11-29T04:52:13.229Z,97014.50
2022-11-29T04:54:54.204Z,97000.41
2022-11-29T04:57:39.978Z,97007.09
2022-11-29T05:00:12.512Z,97012.69
2022-11-29T05:03:04.488Z,97023.44
2022-11-29T05:05:45.565Z,97014.72
2022-11-29T05:08:17.445Z,97021.63
2022-11-29T05:11:06.106Z,97022.59
2022-11-29T05:13:53.929Z,97032.19
2022-11-29T05:16:20.302Z,97036.03
2022-11-29T05:18:58.772Z,97040.91
2022-11-29T05:21:50.985Z,97041.66
2022-11-29T05:24:22.422Z,97034.41
2022-11-29T05:27:07.582Z,97038.53
2022-11-29T05:29:43.200Z,97041.38
2022-11-29T05:32:33.639Z,97043.66
2022-11-29T05:35:18.418Z,97041.34
2022-11-29T05:37:54.770Z,97031.63
2022-11-29T05:40:40.581Z,97042.88
2022-11-29T05:43:24.378Z,97034.41
2022-11-29T05:46:12.748Z,97041.91
2022-11-29T05:49:06.042Z,97039.09
2022-11-29T05:52:17.422Z,97052.47
2022-11-29T05:54:59.185Z,97047.13
2022-11-29T05:57:50.029Z,97042.00
2022-11-29T06:00:18.899Z,97051.00
2022-11-29T06:02:57.380Z,97053.31
2022-11-29T06:05:34.775Z,97052.81
2022-11-29T06:08:07.069Z,97048.47
2022-11-29T06:10:40.088Z,97059.50
2022-11-29T06:13:35.023Z,97051.81
2022-11-29T06:16:28.190Z,97060.75
2022-11-29T06:19:34.329Z,97072.16
2022-11-29T06:22:26.727Z,97068.50
2022-11-29T06:25:08.051Z,97075.22
2022-11-29T06:27:35.238Z,97074.44
2022-11-29T06:30:11.624Z,97076.53
2022-11-29T06:33:18.806Z,97073.22
2022-11-29T06:36:09.190Z,97081.41
2022-11-29T06:38:35.864Z,97075.53
2022-11-29T06:41:02.653Z,97064.72
2022-11-29T06:43:30.139Z,97067.59
2022-11-29T06:46:04.275Z,97084.28
2022-11-29T06:48:38.467Z,97075.53
2022-11-29T06:51:37.387Z,97091.72
2022-11-29T06:54:19.318Z,97080.44
2022-11-29T06:57:32.006Z,97089.91
2022-11-29T07:00:20.371Z,97095.84
2022-11-29T07:02:58.689Z,97093.28
2022-11-29T07:05:29.103Z,97090.25
2022-11-29T07:07:58.369Z,97101.78
2022-11-29T07:10:25.747Z,97097.16
2022-11-29T07:12:52.415Z,97090.75
2022-11-29T07:15:21.571Z,97102.81
2022-11-29T07:18:09.850Z,97102.31
2022-11-29T07:20:50.506Z,97107.66
2022-11-29T07:23:45.691Z,97104.09
2022-11-29T07:26:33.763Z,97113.03
2022-11-29T07:29:21.940Z,97118.97
2022-11-29T07:31:54.338Z,97121.28
2022-11-29T07:34:38.840Z,97125.38
2022-11-29T07:37:20.403Z,97123.28
2022-11-29T07:39:55.087Z,97124.84
2022-11-29T07:42:41.946Z,97123.28
2022-11-29T07:45:37.827Z,97129.19
2022-11-29T07:48:04.897Z,97124.84
2022-11-29T07:50:31.736Z,97129.41
2022-11-29T07:52:59.471Z,97136.09
2022-11-29T07:55:26.894Z,97131.91
2022-11-29T07:57:53.353Z,97134.22
2022-11-29T08:00:20.383Z,97131.69
2022-11-29T08:02:47.764Z,97142.88
2022-11-29T08:05:14.150Z,97145.75
2022-11-29T08:07:41.659Z,97148.81
2022-11-29T08:10:12.876Z,97138.63
2022-11-29T08:12:48.293Z,97141.06
2022-11-29T08:15:15.048Z,97148.81
2022-11-29T08:17:41.580Z,97141.91
2022-11-29T08:20:09.785Z,97149.06
2022-11-29T08:22:36.264Z,97142.41
2022-11-29T08:25:02.958Z,97155.25
2022-11-29T08:27:29.659Z,97155.78
2022-11-29T08:29:56.035Z,97163.00
2022-11-29T08:32:22.467Z,97173.56
2022-11-29T08:34:49.024Z,97167.13
2022-11-29T08:37:15.396Z,97173.81
2022-11-29T08:39:43.896Z,97183.34
2022-11-29T08:42:10.271Z,97174.09
2022-11-29T08:44:36.650Z,97180.22
2022-11-29T08:47:21.761Z,97183.03
2022-11-29T08:50:03.076Z,97167.63
2022-11-29T08:52:53.670Z,97183.28
2022-11-29T08:55:22.580Z,97183.28
2022-11-29T08:57:49.891Z,97181.19
2022-11-29T09:00:17.319Z,97183.22
2022-11-29T09:02:43.940Z,97179.84
2022-11-29T09:05:11.417Z,97191.13
2022-11-29T09:07:38.478Z,97183.63
2022-11-29T09:10:08.212Z,97196.50
2022-11-29T09:12:35.961Z,97192.16
2022-11-29T09:15:05.048Z,97197.03
2022-11-29T09:17:31.603Z,97204.53
2022-11-29T09:19:57.998Z,97207.13
2022-11-29T09:22:24.412Z,97206.56
2022-11-29T09:24:50.836Z,97208.84
2022-11-29T09:27:17.267Z,97210.97
2022-11-29T09:29:43.635Z,97219.91
2022-11-29T09:32:10.113Z,97211.44
2022-11-29T09:34:36.772Z,97223.56
2022-11-29T09:37:05.354Z,97217.88
2022-11-29T09:39:31.830Z,97224.81
2022-11-29T09:42:07.441Z,97224.53
2022-11-29T09:45:02.142Z,97232.00
2022-11-29T09:47:34.511Z,97234.81
2022-11-29T09:50:34.899Z,97231.97
2022-11-29T09:53:24.938Z,97230.66
2022-11-29T09:56:15.861Z,97237.13
2022-11-29T09:58:48.110Z,97230.91
2022-11-29T10:01:26.165Z,97239.91
2022-11-29T10:03:58.229Z,97237.81
2022-11-29T10:06:32.724Z,97236.78
2022-11-29T10:09:33.336Z,97236.50
2022-11-29T10:12:07.231Z,97244.47
2022-11-29T10:14:45.874Z,97218.47
2022-11-29T10:17:36.672Z,97229.50
2022-11-29T10:20:28.877Z,97244.47
2022-11-29T10:23:25.772Z,97243.44
2022-11-29T10:25:55.387Z,97242.94
2022-11-29T10:28:25.797Z,97246.56
2022-11-29T10:30:55.408Z,97234.75
2022-11-29T10:33:27.108Z,97236.84
2022-11-29T10:35:57.572Z,97244.31
2022-11-29T10:38:32.107Z,97240.69
2022-11-29T10:41:09.766Z,97244.81
2022-11-29T10:43:37.393Z,97232.50
2022-11-29T10:46:06.967Z,97242.44
2022-11-29T10:48:34.216Z,97246.84
2022-11-29T10:51:01.482Z,97252.06
2022-11-29T10:53:31.991Z,97244.66
2022-11-29T10:56:16.795Z,97249.47
2022-11-29T10:59:05.285Z,97247.66
2022-11-29T11:01:36.990Z,97248.50
2022-11-29T11:04:07.325Z,97252.34
2022-11-29T11:06:49.518Z,97248.00
2022-11-29T11:09:46.975Z,97257.22
2022-11-29T11:12:16.387Z,97253.59
2022-11-29T11:14:45.243Z,97249.53
2022-11-29T11:17:33.702Z,97233.31
2022-11-29T11:20:19.629Z,97256.69
2022-11-29T11:22:58.591Z,97252.41
2022-11-29T11:25:35.139Z,97257.56
2022-11-29T11:28:15.405Z,97261.34
2022-11-29T11:30:53.959Z,97259.81
2022-11-29T11:33:29.758Z,97257.34
2022-11-29T11:36:00.630Z,97267.56
2022-11-29T11:38:27.391Z,97261.47
2022-11-29T11:41:18.250Z,97276.09
2022-11-29T11:44:14.987Z,97271.97
2022-11-29T11:46:51.856Z,97270.44
2022-11-29T11:49:50.284Z,97265.59
2022-11-29T11:52:30.029Z,97273.34
2022-11-29T11:55:02.882Z,97275.91
2022-11-29T11:57:30.332Z,97276.97
2022-11-29T12:00:03.439Z,97277.69
2022-11-29T12:02:38.967Z,97283.13
2022-11-29T12:05:13.838Z,97282.09
2022-11-29T12:10:37.581Z,97276.69
2022-11-29T12:13:04.803Z,97280.28
2022-11-29T12:15:38.528Z,97279.75
2022-11-29T12:18:24.604Z,97276.50
2022-11-29T12:20:55.873Z,97290.38
2022-11-29T12:23:40.267Z,97285.00
2022-11-29T12:26:48.549Z,97295.72
2022-11-29T12:29:02.741Z,97291.34
2022-11-29T12:32:06.521Z,97297.72
2022-11-29T12:35:00.992Z,97296.50
2022-11-29T12:37:43.057Z,97300.91
2022-11-29T12:40:17.897Z,97303.00
2022-11-29T12:43:02.087Z,97306.31
2022-11-29T12:45:40.897Z,97308.34
2022-11-29T12:48:51.698Z,97309.44
2022-11-29T12:51:39.878Z,97302.69
2022-11-29T12:54:36.623Z,97306.56
2022-11-29T12:57:26.949Z,97307.31
2022-11-29T13:00:10.650Z,97305.66
2022-11-29T13:03:18.954Z,97301.63
2022-11-29T13:05:52.115Z,97309.84
2022-11-29T13:08:39.844Z,97309.56
2022-11-29T13:11:29.290Z,97309.84
2022-11-29T13:17:31.942Z,97297.47
2022-11-29T13:20:16.371Z,97306.72
2022-11-29T13:22:45.764Z,97310.28
2022-11-29T13:25:20.806Z,97308.69
2022-11-29T13:27:58.896Z,97309.56
2022-11-29T13:30:26.164Z,97320.41
2022-11-29T13:33:10.702Z,97305.22
2022-11-29T13:35:48.002Z,97316.22
2022-11-29T13:38:39.248Z,97313.81
2022-11-29T13:41:17.012Z,97303.47
2022-11-29T13:43:56.549Z,97306.88
2022-11-29T13:46:30.785Z,97306.81
2022-11-29T13:48:57.396Z,97312.25
2022-11-29T13:51:28.773Z,97318.69
2022-11-29T13:53:57.347Z,97316.16
2022-11-29T13:56:46.341Z,97331.13
2022-11-29T13:59:27.784Z,97329.25
2022-11-29T14:01:54.682Z,97328.22
2022-11-29T14:04:34.559Z,97330.81
2022-11-29T14:07:03.835Z,97329.81
2022-11-29T14:09:35.204Z,97331.69
2022-11-29T14:12:17.077Z,97328.38
2022-11-29T14:14:54.133Z,97343.50
2022-11-29T14:17:57.308Z,97345.53
2022-11-29T14:20:23.675Z,97348.63
2022-11-29T14:23:05.079Z,97351.03
2022-11-29T14:28:23.106Z,97348.31
2022-11-29T14:30:58.245Z,97335.75
2022-11-29T14:34:00.256Z,97344.78
2022-11-29T14:36:50.331Z,97339.88
2022-11-29T14:39:43.995Z,97349.50
2022-11-29T14:42:18.342Z,97353.41
2022-11-29T14:44:49.312Z,97347.72
2022-11-29T14:47:23.986Z,97352.88
2022-11-29T14:49:52.915Z,97350.66
2022-11-29T14:52:26.449Z,97362.56
2022-11-29T14:54:58.952Z,97361.75
2022-11-29T14:57:51.174Z,97361.34
2022-11-29T15:00:32.366Z,97355.97
2022-11-29T15:03:09.778Z,97369.81
2022-11-29T15:05:40.356Z,97357.81
2022-11-29T15:08:25.088Z,97361.38
2022-11-29T15:11:17.821Z,97377.94
2022-11-29T15:14:19.098Z,97367.25
2022-11-29T15:17:00.777Z,97372.63
2022-11-29T15:19:35.862Z,97389.16
2022-11-29T15:22:17.877Z,97384.22
2022-11-29T15:24:52.759Z,97377.91
2022-11-29T15:27:19.931Z,97386.97
2022-11-29T15:29:48.251Z,97386.44
2022-11-29T15:32:26.978Z,97393.19
2022-11-29T15:34:55.830Z,97387.22
2022-11-29T15:37:42.552Z,97389.09
2022-11-29T15:40:17.658Z,97386.97
2022-11-29T15:42:50.578Z,97396.59
2022-11-29T15:45:34.141Z,97412.34
2022-11-29T15:48:33.403Z,97413.66
2022-11-29T15:51:06.143Z,97417.53
2022-11-29T15:53:38.712Z,97406.28
2022-11-29T15:56:36.019Z,97420.66
2022-11-29T15:59:08.902Z,97418.63
2022-11-29T16:01:37.404Z,97414.56
2022-11-29T16:04:04.049Z,97424.59
2022-11-29T16:06:36.038Z,97421.25
2022-11-29T16:09:03.064Z,97422.31
2022-11-29T16:11:31.624Z,97417.16
2022-11-29T16:14:12.813Z,97418.94
2022-11-29T16:16:40.638Z,97421.31
2022-11-29T16:19:16.956Z,97416.66
2022-11-29T16:21:44.318Z,97415.13
2022-11-29T16:24:14.035Z,97409.97
2022-11-29T16:26:44.292Z,97419.28
2022-11-29T16:29:24.725Z,97435.03
2022-11-29T16:31:52.104Z,97421.63
2022-11-29T16:34:24.255Z,97433.22
2022-11-29T16:37:01.200Z,97426.53
2022-11-29T16:39:28.192Z,97434.28
2022-11-29T16:42:18.323Z,97434.25
2022-11-29T16:45:03.960Z,97425.50
2022-11-29T16:47:52.854Z,97439.16
2022-11-29T16:50:22.241Z,97424.53
2022-11-29T16:52:56.112Z,97426.88
2022-11-29T16:55:23.075Z,97429.19
2022-11-29T16:57:49.908Z,97432.56
2022-11-29T17:00:33.218Z,97431.03
2022-11-29T17:02:59.893Z,97434.88
2022-11-29T17:05:27.063Z,97443.13
2022-11-29T17:07:53.729Z,97432.56
2022-11-29T17:10:23.957Z,97432.59
2022-11-29T17:12:50.400Z,97448.56
2022-11-29T17:15:16.806Z,97439.00
2022-11-29T17:17:43.569Z,97437.72
2022-11-29T17:20:12.117Z,97435.94
2022-11-29T17:22:38.518Z,97433.59
2022-11-29T17:25:05.256Z,97438.75
2022-11-29T17:27:31.608Z,97444.69
2022-11-29T17:29:58.003Z,97447.25
2022-11-29T17:32:26.884Z,97444.97
2022-11-29T17:34:53.556Z,97447.03
2022-11-29T17:37:20.000Z,97451.13
2022-11-29T17:39:48.330Z,97449.34
2022-11-29T17:42:14.973Z,97444.19
2022-11-29T17:44:41.464Z,97453.69
2022-11-29T17:47:07.891Z,97446.50
2022-11-29T17:49:34.263Z,97460.41
2022-11-29T17:52:00.707Z,97464.78
2022-11-29T17:54:27.092Z,97466.06
2022-11-29T17:56:53.574Z,97461.19
2022-11-29T17:59:20.374Z,97469.94
2022-11-29T18:01:49.816Z,97454.25
2022-11-29T18:04:16.414Z,97473.28
2022-11-29T18:06:43.556Z,97476.63
2022-11-29T18:09:10.878Z,97477.91
2022-11-29T18:11:48.303Z,97481.53
2022-11-29T18:14:27.908Z,97479.22
2022-11-29T18:16:54.470Z,97466.06
2022-11-29T18:19:22.358Z,97483.31
2022-11-29T18:21:49.593Z,97478.69
2022-11-29T18:24:16.184Z,97478.66
2022-11-29T18:26:42.832Z,97475.06
2022-11-29T18:29:10.038Z,97473.00
2022-11-29T18:31:39.447Z,97479.94
2022-11-29T18:34:09.337Z,97474.78
2022-11-29T18:36:43.002Z,97479.44
2022-11-29T18:39:18.353Z,97467.31
2022-11-29T18:41:47.377Z,97463.44
2022-11-29T18:44:15.551Z,97474.25
2022-11-29T18:46:44.020Z,97473.50
2022-11-29T18:49:12.976Z,97476.09
2022-11-29T18:51:41.038Z,97467.84
2022-11-29T18:54:07.444Z,97472.47
2022-11-29T18:56:35.155Z,97485.63
2022-11-29T18:59:04.821Z,97483.81
2022-11-29T19:01:34.289Z,97501.06
2022-11-29T19:04:01.630Z,97488.97
2022-11-29T19:06:37.149Z,97487.16
2022-11-29T19:09:06.315Z,97494.38
2022-11-29T19:11:33.731Z,97511.91
2022-11-29T19:14:03.850Z,97504.16
2022-11-29T19:16:32.370Z,97505.19
2022-11-29T19:18:59.835Z,97507.53
2022-11-29T19:21:29.120Z,97503.91
2022-11-29T19:23:58.390Z,97500.56
2022-11-29T19:26:27.027Z,97506.75
2022-11-29T19:28:54.131Z,97515.78
2022-11-29T19:31:25.064Z,97502.13
2022-11-29T19:33:52.649Z,97503.13
2022-11-29T19:36:27.761Z,97514.75
2022-11-29T19:38:54.838Z,97510.63
2022-11-29T19:41:27.794Z,97510.88
2022-11-29T19:43:56.441Z,97514.22
2022-11-29T19:46:25.758Z,97511.09
2022-11-29T19:48:53.785Z,97501.06
2022-11-29T19:51:20.444Z,97509.28
2022-11-29T19:53:47.412Z,97510.81
2022-11-29T19:56:16.258Z,97511.88
2022-11-29T19:58:43.664Z,97514.69
2022-11-29T20:01:17.080Z,97506.22
2022-11-29T20:03:44.884Z,97519.09
2022-11-29T20:06:11.974Z,97509.31
2022-11-29T20:08:38.509Z,97515.75
2022-11-29T20:11:10.652Z,97516.78
2022-11-29T20:13:38.159Z,97524.75
2022-11-29T20:16:12.870Z,97519.63
2022-11-29T20:18:45.741Z,97521.69
2022-11-29T20:21:18.611Z,97526.34
2022-11-29T20:23:44.978Z,97527.13
2022-11-29T20:26:17.682Z,97515.53
2022-11-29T20:28:44.658Z,97525.81
2022-11-29T20:31:17.487Z,97519.13
2022-11-29T20:33:45.535Z,97527.88
2022-11-29T20:36:32.999Z,97526.34
2022-11-29T20:39:08.363Z,97534.84
2022-11-29T20:42:00.570Z,97534.59
2022-11-29T20:44:37.765Z,97532.78
2022-11-29T20:47:19.148Z,97519.38
2022-11-29T20:49:46.315Z,97519.13
2022-11-29T20:52:37.556Z,97536.88
2022-11-29T20:55:05.160Z,97512.94
2022-11-29T20:57:31.591Z,97531.19
2022-11-29T20:59:57.945Z,97536.91
2022-11-29T21:02:24.736Z,97541.03
2022-11-29T21:04:51.515Z,97541.78
2022-11-29T21:07:18.000Z,97531.00
2022-11-29T21:09:44.948Z,97543.59
2022-11-29T21:12:11.960Z,97551.31
2022-11-29T21:14:38.584Z,97542.81
2022-11-29T21:17:05.335Z,97543.84
2022-11-29T21:19:32.003Z,97543.59
2022-11-29T21:22:35.751Z,97554.69
2022-11-29T21:25:14.319Z,97541.00
2022-11-29T21:27:41.034Z,97552.63
2022-11-29T21:30:18.931Z,97546.97
2022-11-29T21:32:45.954Z,97544.38
2022-11-29T21:35:12.982Z,97550.81
2022-11-29T21:37:39.457Z,97551.84
2022-11-29T21:40:06.602Z,97555.72
2022-11-29T21:42:33.091Z,97554.69
2022-11-29T21:44:59.521Z,97552.13
2022-11-29T21:47:25.874Z,97560.63
2022-11-29T21:49:54.199Z,97546.97
2022-11-29T21:52:22.861Z,97554.72
2022-11-29T21:54:50.081Z,97553.94
2022-11-29T21:57:16.447Z,97551.09
2022-11-29T21:59:42.815Z,97547.50
2022-11-29T22:02:09.509Z,97549.53
2022-11-29T22:04:35.982Z,97542.31
2022-11-29T22:07:02.378Z,97541.56
2022-11-29T22:09:28.870Z,97555.47
2022-11-29T22:11:55.213Z,97549.31
2022-11-29T22:14:21.556Z,97544.16
2022-11-29T22:16:50.452Z,97549.56
2022-11-29T22:19:21.788Z,97554.69
2022-11-29T22:21:52.037Z,97542.09
2022-11-29T22:24:20.561Z,97548.78
2022-11-29T22:26:48.328Z,97542.09
2022-11-29T22:29:14.969Z,97535.38
2022-11-29T22:31:42.769Z,97544.91
2022-11-29T22:34:09.603Z,97546.47
2022-11-29T22:36:37.383Z,97549.31
2022-11-29T22:39:05.240Z,97553.69
2022-11-29T22:41:33.148Z,97556.25
2022-11-29T22:43:59.523Z,97553.41
2022-11-29T22:46:27.786Z,97549.78
2022-11-29T22:48:56.148Z,97558.56
2022-11-29T22:51:25.783Z,97555.22
2022-11-29T22:53:54.355Z,97566.31
2022-11-29T22:56:22.861Z,97560.09
2022-11-29T22:58:49.832Z,97568.88
2022-11-29T23:01:18.601Z,97557.00
2022-11-29T23:03:53.751Z,97552.13
2022-11-29T23:06:26.090Z,97555.22
2022-11-29T23:08:54.714Z,97571.97
2022-11-29T23:11:23.627Z,97556.25
2022-11-29T23:13:50.474Z,97562.72
2022-11-29T23:16:22.204Z,97574.81
2022-11-29T23:18:48.885Z,97575.09
2022-11-29T23:21:27.212Z,97570.16
2022-11-29T23:23:56.526Z,97570.94
2022-11-29T23:26:26.095Z,97566.31
2022-11-29T23:28:53.644Z,97577.91
2022-11-29T23:31:20.752Z,97577.91
2022-11-29T23:33:47.676Z,97577.16
2022-11-29T23:36:15.314Z,97563.47
2022-11-29T23:38:42.411Z,97570.44
2022-11-29T23:41:09.785Z,97570.44
2022-11-29T23:43:38.907Z,97561.41
2022-11-29T23:46:07.124Z,97564.00
2022-11-29T23:48:33.573Z,97570.94
2022-11-29T23:51:00.178Z,97562.97
2022-11-29T23:53:26.926Z,97572.00
2022-11-29T23:55:58.057Z,97571.97
2022-11-29T23:58:25.217Z,97568.38
